sensor_id;sensor_type;location;lat;lon;timestamp;temperature;humidity
21019;DHT22;10667;51.056;3.732;2023-05-10T00:00:52;14.30;99.90
21019;DHT22;10667;51.056;3.732;2023-05-10T00:03:18;14.40;99.90
21019;DHT22;10667;51.056;3.732;2023-05-10T00:05:43;14.30;99.90
21019;DHT22;10667;51.056;3.732;2023-05-10T00:08:09;14.30;99.90
21019;DHT22;10667;51.056;3.732;2023-05-10T00:10:35;14.30;99.90
21019;DHT22;10667;51.056;3.732;2023-05-10T00:13:01;14.40;99.90
21019;DHT22;10667;51.056;3.732;2023-05-10T00:15:27;14.40;99.90
21019;DHT22;10667;51.056;3.732;2023-05-10T00:17:53;14.40;99.90
21019;DHT22;10667;51.056;3.732;2023-05-10T00:20:18;14.30;99.90
21019;DHT22;10667;51.056;3.732;2023-05-10T00:22:44;14.40;99.90
21019;DHT22;10667;51.056;3.732;2023-05-10T00:25:09;14.30;99.90
21019;DHT22;10667;51.056;3.732;2023-05-10T00:27:35;14.40;99.90
21019;DHT22;10667;51.056;3.732;2023-05-10T00:30:01;14.40;99.90
21019;DHT22;10667;51.056;3.732;2023-05-10T00:32:27;14.30;99.90
21019;DHT22;10667;51.056;3.732;2023-05-10T00:34:52;14.40;99.90
21019;DHT22;10667;51.056;3.732;2023-05-10T00:37:18;14.30;99.90
21019;DHT22;10667;51.056;3.732;2023-05-10T00:39:43;14.40;99.90
21019;DHT22;10667;51.056;3.732;2023-05-10T00:42:09;14.50;99.90
21019;DHT22;10667;51.056;3.732;2023-05-10T00:44:35;14.50;99.90
21019;DHT22;10667;51.056;3.732;2023-05-10T00:47:01;14.40;99.90
21019;DHT22;10667;51.056;3.732;2023-05-10T00:49:26;14.40;99.90
21019;DHT22;10667;51.056;3.732;2023-05-10T00:51:53;14.40;99.90
21019;DHT22;10667;51.056;3.732;2023-05-10T00:54:18;14.50;99.90
21019;DHT22;10667;51.056;3.732;2023-05-10T00:56:44;14.50;99.90
21019;DHT22;10667;51.056;3.732;2023-05-10T00:59:15;14.50;99.90
21019;DHT22;10667;51.056;3.732;2023-05-10T01:01:42;14.50;99.90
21019;DHT22;10667;51.056;3.732;2023-05-10T01:04:09;14.50;99.90
21019;DHT22;10667;51.056;3.732;2023-05-10T01:06:36;14.30;99.90
21019;DHT22;10667;51.056;3.732;2023-05-10T01:09:02;14.30;99.90
21019;DHT22;10667;51.056;3.732;2023-05-10T01:11:27;14.30;99.90
21019;DHT22;10667;51.056;3.732;2023-05-10T01:13:56;14.40;99.90
21019;DHT22;10667;51.056;3.732;2023-05-10T01:16:22;14.30;99.90
21019;DHT22;10667;51.056;3.732;2023-05-10T01:18:48;14.30;99.90
21019;DHT22;10667;51.056;3.732;2023-05-10T01:24:39;14.40;99.90
21019;DHT22;10667;51.056;3.732;2023-05-10T01:40:30;14.20;99.90
21019;DHT22;10667;51.056;3.732;2023-05-10T01:43:03;14.30;99.90
21019;DHT22;10667;51.056;3.732;2023-05-10T01:45:50;14.30;99.90
21019;DHT22;10667;51.056;3.732;2023-05-10T01:48:18;14.30;99.90
21019;DHT22;10667;51.056;3.732;2023-05-10T01:50:45;14.30;99.90
21019;DHT22;10667;51.056;3.732;2023-05-10T01:53:12;14.20;99.90
21019;DHT22;10667;51.056;3.732;2023-05-10T01:55:44;14.20;99.90
21019;DHT22;10667;51.056;3.732;2023-05-10T01:58:19;14.10;99.90
21019;DHT22;10667;51.056;3.732;2023-05-10T02:00:46;14.10;99.90
21019;DHT22;10667;51.056;3.732;2023-05-10T02:03:13;14.10;99.90
21019;DHT22;10667;51.056;3.732;2023-05-10T02:05:41;14.10;99.90
21019;DHT22;10667;51.056;3.732;2023-05-10T02:08:09;14.00;99.90
21019;DHT22;10667;51.056;3.732;2023-05-10T02:10:36;14.00;99.90
21019;DHT22;10667;51.056;3.732;2023-05-10T02:13:03;14.10;99.90
21019;DHT22;10667;51.056;3.732;2023-05-10T02:15:32;14.20;99.90
21019;DHT22;10667;51.056;3.732;2023-05-10T02:18:00;14.20;99.90
21019;DHT22;10667;51.056;3.732;2023-05-10T02:20:27;14.20;99.90
21019;DHT22;10667;51.056;3.732;2023-05-10T02:22:55;14.30;99.90
21019;DHT22;10667;51.056;3.732;2023-05-10T02:25:23;14.30;99.90
21019;DHT22;10667;51.056;3.732;2023-05-10T02:27:49;14.10;99.90
21019;DHT22;10667;51.056;3.732;2023-05-10T02:30:16;14.10;99.90
21019;DHT22;10667;51.056;3.732;2023-05-10T02:32:43;14.20;99.90
21019;DHT22;10667;51.056;3.732;2023-05-10T02:35:10;14.20;99.90
21019;DHT22;10667;51.056;3.732;2023-05-10T02:37:37;14.20;99.90
21019;DHT22;10667;51.056;3.732;2023-05-10T02:40:05;14.30;99.90
21019;DHT22;10667;51.056;3.732;2023-05-10T02:42:33;14.30;99.90
21019;DHT22;10667;51.056;3.732;2023-05-10T02:45:02;14.30;99.90
21019;DHT22;10667;51.056;3.732;2023-05-10T02:47:29;14.30;99.90
21019;DHT22;10667;51.056;3.732;2023-05-10T02:49:55;14.30;99.90
21019;DHT22;10667;51.056;3.732;2023-05-10T02:52:29;14.30;99.90
21019;DHT22;10667;51.056;3.732;2023-05-10T02:54:57;14.30;99.90
21019;DHT22;10667;51.056;3.732;2023-05-10T02:57:27;14.40;99.90
21019;DHT22;10667;51.056;3.732;2023-05-10T02:59:54;14.40;99.90
21019;DHT22;10667;51.056;3.732;2023-05-10T03:02:20;14.30;99.90
21019;DHT22;10667;51.056;3.732;2023-05-10T03:04:46;14.30;99.90
21019;DHT22;10667;51.056;3.732;2023-05-10T03:07:13;14.40;99.90
21019;DHT22;10667;51.056;3.732;2023-05-10T03:09:39;14.30;99.90
21019;DHT22;10667;51.056;3.732;2023-05-10T03:15:57;14.10;99.90
21019;DHT22;10667;51.056;3.732;2023-05-10T03:18:06;14.10;99.90
21019;DHT22;10667;51.056;3.732;2023-05-10T03:20:41;14.30;99.90
21019;DHT22;10667;51.056;3.732;2023-05-10T03:23:51;14.20;99.90
21019;DHT22;10667;51.056;3.732;2023-05-10T03:26:27;14.20;99.90
21019;DHT22;10667;51.056;3.732;2023-05-10T03:28:54;14.20;99.90
21019;DHT22;10667;51.056;3.732;2023-05-10T03:31:20;14.20;99.90
21019;DHT22;10667;51.056;3.732;2023-05-10T03:33:47;14.20;99.90
21019;DHT22;10667;51.056;3.732;2023-05-10T03:36:13;14.30;99.90
21019;DHT22;10667;51.056;3.732;2023-05-10T03:38:39;14.40;99.90
21019;DHT22;10667;51.056;3.732;2023-05-10T03:41:05;14.50;99.90
21019;DHT22;10667;51.056;3.732;2023-05-10T03:43:30;14.40;99.90
21019;DHT22;10667;51.056;3.732;2023-05-10T03:45:56;14.40;99.90
21019;DHT22;10667;51.056;3.732;2023-05-10T03:48:21;14.40;99.90
21019;DHT22;10667;51.056;3.732;2023-05-10T03:50:47;14.40;99.90
21019;DHT22;10667;51.056;3.732;2023-05-10T03:53:15;14.40;99.90
21019;DHT22;10667;51.056;3.732;2023-05-10T03:55:40;14.30;99.90
21019;DHT22;10667;51.056;3.732;2023-05-10T03:58:06;14.30;99.90
21019;DHT22;10667;51.056;3.732;2023-05-10T04:00:32;14.40;99.90
21019;DHT22;10667;51.056;3.732;2023-05-10T04:02:58;14.40;99.90
21019;DHT22;10667;51.056;3.732;2023-05-10T04:05:23;14.30;99.90
21019;DHT22;10667;51.056;3.732;2023-05-10T04:07:49;14.30;99.90
21019;DHT22;10667;51.056;3.732;2023-05-10T04:10:16;14.30;99.90
21019;DHT22;10667;51.056;3.732;2023-05-10T04:12:42;14.30;99.90
21019;DHT22;10667;51.056;3.732;2023-05-10T04:15:08;14.30;99.90
21019;DHT22;10667;51.056;3.732;2023-05-10T04:17:33;14.30;99.90
21019;DHT22;10667;51.056;3.732;2023-05-10T04:19:59;14.30;99.90
21019;DHT22;10667;51.056;3.732;2023-05-10T04:22:25;14.30;99.90
21019;DHT22;10667;51.056;3.732;2023-05-10T04:24:50;14.40;99.90
21019;DHT22;10667;51.056;3.732;2023-05-10T04:27:16;14.40;99.90
21019;DHT22;10667;51.056;3.732;2023-05-10T04:29:42;14.40;99.90
21019;DHT22;10667;51.056;3.732;2023-05-10T04:32:08;14.40;99.90
21019;DHT22;10667;51.056;3.732;2023-05-10T04:34:36;14.40;99.90
21019;DHT22;10667;51.056;3.732;2023-05-10T04:37:01;14.40;99.90
21019;DHT22;10667;51.056;3.732;2023-05-10T04:39:27;14.40;99.90
21019;DHT22;10667;51.056;3.732;2023-05-10T04:41:52;14.50;99.90
21019;DHT22;10667;51.056;3.732;2023-05-10T04:44:18;14.50;99.90
21019;DHT22;10667;51.056;3.732;2023-05-10T04:46:43;14.50;99.90
21019;DHT22;10667;51.056;3.732;2023-05-10T04:49:09;14.50;99.90
21019;DHT22;10667;51.056;3.732;2023-05-10T04:51:35;14.50;99.90
21019;DHT22;10667;51.056;3.732;2023-05-10T04:54:00;14.50;99.90
21019;DHT22;10667;51.056;3.732;2023-05-10T04:56:26;14.50;99.90
21019;DHT22;10667;51.056;3.732;2023-05-10T04:58:51;14.60;99.90
21019;DHT22;10667;51.056;3.732;2023-05-10T05:01:17;14.60;99.90
21019;DHT22;10667;51.056;3.732;2023-05-10T05:03:43;14.60;99.90
21019;DHT22;10667;51.056;3.732;2023-05-10T05:06:08;14.60;99.90
21019;DHT22;10667;51.056;3.732;2023-05-10T05:08:34;14.60;99.90
21019;DHT22;10667;51.056;3.732;2023-05-10T05:11:00;14.60;99.90
21019;DHT22;10667;51.056;3.732;2023-05-10T05:13:25;14.60;99.90
21019;DHT22;10667;51.056;3.732;2023-05-10T05:15:51;14.50;99.90
21019;DHT22;10667;51.056;3.732;2023-05-10T05:18:16;14.50;99.90
21019;DHT22;10667;51.056;3.732;2023-05-10T05:20:42;14.60;99.90
21019;DHT22;10667;51.056;3.732;2023-05-10T05:23:08;14.40;99.90
21019;DHT22;10667;51.056;3.732;2023-05-10T05:25:33;14.50;99.90
21019;DHT22;10667;51.056;3.732;2023-05-10T05:27:59;14.60;99.90
21019;DHT22;10667;51.056;3.732;2023-05-10T05:30:25;14.60;99.90
21019;DHT22;10667;51.056;3.732;2023-05-10T05:32:50;14.60;99.90
21019;DHT22;10667;51.056;3.732;2023-05-10T05:35:16;14.60;99.90
21019;DHT22;10667;51.056;3.732;2023-05-10T05:37:42;14.60;99.90
21019;DHT22;10667;51.056;3.732;2023-05-10T05:40:08;14.70;99.90
21019;DHT22;10667;51.056;3.732;2023-05-10T05:42:34;14.80;99.90
21019;DHT22;10667;51.056;3.732;2023-05-10T05:44:59;14.90;99.90
21019;DHT22;10667;51.056;3.732;2023-05-10T05:47:25;14.80;99.90
21019;DHT22;10667;51.056;3.732;2023-05-10T05:49:50;14.70;99.90
21019;DHT22;10667;51.056;3.732;2023-05-10T05:52:16;14.60;99.90
21019;DHT22;10667;51.056;3.732;2023-05-10T05:54:43;14.60;99.90
21019;DHT22;10667;51.056;3.732;2023-05-10T05:57:09;14.70;99.90
21019;DHT22;10667;51.056;3.732;2023-05-10T05:59:34;14.80;99.90
21019;DHT22;10667;51.056;3.732;2023-05-10T06:02:00;14.90;99.90
21019;DHT22;10667;51.056;3.732;2023-05-10T06:04:26;14.70;99.90
21019;DHT22;10667;51.056;3.732;2023-05-10T06:06:51;14.70;99.90
21019;DHT22;10667;51.056;3.732;2023-05-10T06:09:17;14.80;99.90
21019;DHT22;10667;51.056;3.732;2023-05-10T06:11:42;14.90;99.90
21019;DHT22;10667;51.056;3.732;2023-05-10T06:14:08;14.90;99.90
21019;DHT22;10667;51.056;3.732;2023-05-10T06:16:34;14.90;99.90
21019;DHT22;10667;51.056;3.732;2023-05-10T06:19:00;15.00;99.90
21019;DHT22;10667;51.056;3.732;2023-05-10T06:21:26;15.10;99.90
21019;DHT22;10667;51.056;3.732;2023-05-10T06:23:51;15.20;99.90
21019;DHT22;10667;51.056;3.732;2023-05-10T06:26:17;15.20;99.90
21019;DHT22;10667;51.056;3.732;2023-05-10T06:28:43;15.10;99.90
21019;DHT22;10667;51.056;3.732;2023-05-10T06:31:08;15.20;99.90
21019;DHT22;10667;51.056;3.732;2023-05-10T06:33:36;15.30;99.90
21019;DHT22;10667;51.056;3.732;2023-05-10T06:36:02;15.20;99.90
21019;DHT22;10667;51.056;3.732;2023-05-10T06:38:28;15.30;99.90
21019;DHT22;10667;51.056;3.732;2023-05-10T06:40:53;15.20;99.90
21019;DHT22;10667;51.056;3.732;2023-05-10T06:43:19;15.20;99.90
21019;DHT22;10667;51.056;3.732;2023-05-10T06:45:45;15.20;99.90
21019;DHT22;10667;51.056;3.732;2023-05-10T06:48:10;15.00;99.90
21019;DHT22;10667;51.056;3.732;2023-05-10T06:50:36;15.00;99.90
21019;DHT22;10667;51.056;3.732;2023-05-10T06:53:02;15.10;99.90
21019;DHT22;10667;51.056;3.732;2023-05-10T06:55:28;15.20;99.90
21019;DHT22;10667;51.056;3.732;2023-05-10T06:57:54;15.20;99.90
21019;DHT22;10667;51.056;3.732;2023-05-10T07:00:20;15.30;99.90
21019;DHT22;10667;51.056;3.732;2023-05-10T07:02:46;15.40;99.90
21019;DHT22;10667;51.056;3.732;2023-05-10T07:05:12;15.60;99.90
21019;DHT22;10667;51.056;3.732;2023-05-10T07:07:38;15.90;99.90
21019;DHT22;10667;51.056;3.732;2023-05-10T07:10:05;16.00;99.90
21019;DHT22;10667;51.056;3.732;2023-05-10T07:12:31;16.10;99.90
21019;DHT22;10667;51.056;3.732;2023-05-10T07:14:56;16.10;99.90
21019;DHT22;10667;51.056;3.732;2023-05-10T07:17:22;16.10;99.90
21019;DHT22;10667;51.056;3.732;2023-05-10T07:19:48;15.90;99.90
21019;DHT22;10667;51.056;3.732;2023-05-10T07:22:14;15.80;99.90
21019;DHT22;10667;51.056;3.732;2023-05-10T07:24:40;15.80;99.90
21019;DHT22;10667;51.056;3.732;2023-05-10T07:27:06;15.60;99.90
21019;DHT22;10667;51.056;3.732;2023-05-10T07:29:31;15.50;99.90
21019;DHT22;10667;51.056;3.732;2023-05-10T07:31:57;15.50;99.90
21019;DHT22;10667;51.056;3.732;2023-05-10T07:34:22;15.60;99.90
21019;DHT22;10667;51.056;3.732;2023-05-10T07:36:48;15.50;99.90
21019;DHT22;10667;51.056;3.732;2023-05-10T07:39:14;15.50;99.90
21019;DHT22;10667;51.056;3.732;2023-05-10T07:41:39;15.60;99.90
21019;DHT22;10667;51.056;3.732;2023-05-10T07:44:06;15.70;99.90
21019;DHT22;10667;51.056;3.732;2023-05-10T07:46:31;15.80;99.90
21019;DHT22;10667;51.056;3.732;2023-05-10T07:48:57;15.70;99.90
21019;DHT22;10667;51.056;3.732;2023-05-10T07:51:23;15.70;99.90
21019;DHT22;10667;51.056;3.732;2023-05-10T07:53:49;15.80;99.90
21019;DHT22;10667;51.056;3.732;2023-05-10T07:58:53;15.80;99.90
21019;DHT22;10667;51.056;3.732;2023-05-10T08:01:19;15.90;99.90
21019;DHT22;10667;51.056;3.732;2023-05-10T08:03:45;16.00;99.90
21019;DHT22;10667;51.056;3.732;2023-05-10T08:06:10;16.10;99.90
21019;DHT22;10667;51.056;3.732;2023-05-10T08:08:36;15.80;99.90
21019;DHT22;10667;51.056;3.732;2023-05-10T08:11:03;16.00;99.90
21019;DHT22;10667;51.056;3.732;2023-05-10T08:13:29;16.00;99.90
21019;DHT22;10667;51.056;3.732;2023-05-10T08:15:54;16.20;99.90
21019;DHT22;10667;51.056;3.732;2023-05-10T08:18:20;16.30;99.90
21019;DHT22;10667;51.056;3.732;2023-05-10T08:20:46;16.30;99.90
21019;DHT22;10667;51.056;3.732;2023-05-10T08:23:15;16.40;99.90
21019;DHT22;10667;51.056;3.732;2023-05-10T08:25:41;16.40;99.90
21019;DHT22;10667;51.056;3.732;2023-05-10T08:28:06;16.30;99.90
21019;DHT22;10667;51.056;3.732;2023-05-10T08:30:32;16.30;99.90
21019;DHT22;10667;51.056;3.732;2023-05-10T08:32:58;16.30;99.90
21019;DHT22;10667;51.056;3.732;2023-05-10T08:35:23;16.30;99.90
21019;DHT22;10667;51.056;3.732;2023-05-10T08:37:51;16.20;99.90
21019;DHT22;10667;51.056;3.732;2023-05-10T08:40:19;16.20;99.90
21019;DHT22;10667;51.056;3.732;2023-05-10T08:42:54;16.30;99.90
21019;DHT22;10667;51.056;3.732;2023-05-10T08:45:23;16.30;99.90
21019;DHT22;10667;51.056;3.732;2023-05-10T08:47:50;16.30;99.90
21019;DHT22;10667;51.056;3.732;2023-05-10T08:50:19;16.30;99.90
21019;DHT22;10667;51.056;3.732;2023-05-10T08:52:47;16.30;99.90
21019;DHT22;10667;51.056;3.732;2023-05-10T08:55:15;16.10;99.90
21019;DHT22;10667;51.056;3.732;2023-05-10T08:57:41;16.00;99.90
21019;DHT22;10667;51.056;3.732;2023-05-10T09:00:07;15.60;99.90
21019;DHT22;10667;51.056;3.732;2023-05-10T09:02:34;15.70;99.90
21019;DHT22;10667;51.056;3.732;2023-05-10T09:05:00;15.70;99.90
21019;DHT22;10667;51.056;3.732;2023-05-10T09:07:25;15.70;99.90
21019;DHT22;10667;51.056;3.732;2023-05-10T09:09:52;15.40;99.90
21019;DHT22;10667;51.056;3.732;2023-05-10T09:12:18;15.20;99.90
21019;DHT22;10667;51.056;3.732;2023-05-10T09:14:44;15.30;99.90
21019;DHT22;10667;51.056;3.732;2023-05-10T09:17:10;15.40;99.90
21019;DHT22;10667;51.056;3.732;2023-05-10T09:19:36;15.40;99.90
21019;DHT22;10667;51.056;3.732;2023-05-10T09:22:03;15.60;99.90
21019;DHT22;10667;51.056;3.732;2023-05-10T09:24:30;15.80;99.90
21019;DHT22;10667;51.056;3.732;2023-05-10T09:26:57;15.80;99.90
21019;DHT22;10667;51.056;3.732;2023-05-10T09:29:23;16.10;99.90
21019;DHT22;10667;51.056;3.732;2023-05-10T09:31:52;16.20;99.90
21019;DHT22;10667;51.056;3.732;2023-05-10T09:34:30;16.30;99.90
21019;DHT22;10667;51.056;3.732;2023-05-10T09:36:57;16.60;99.90
21019;DHT22;10667;51.056;3.732;2023-05-10T09:39:33;16.70;99.90
21019;DHT22;10667;51.056;3.732;2023-05-10T09:42:03;16.50;99.90
21019;DHT22;10667;51.056;3.732;2023-05-10T09:44:30;16.70;99.90
21019;DHT22;10667;51.056;3.732;2023-05-10T09:46:56;17.10;99.90
21019;DHT22;10667;51.056;3.732;2023-05-10T09:49:22;17.10;99.90
21019;DHT22;10667;51.056;3.732;2023-05-10T09:52:03;17.20;99.90
21019;DHT22;10667;51.056;3.732;2023-05-10T09:54:29;17.20;99.90
21019;DHT22;10667;51.056;3.732;2023-05-10T09:56:55;17.40;99.90
21019;DHT22;10667;51.056;3.732;2023-05-10T09:59:21;17.40;99.90
21019;DHT22;10667;51.056;3.732;2023-05-10T10:01:51;17.40;99.90
21019;DHT22;10667;51.056;3.732;2023-05-10T10:04:17;17.60;99.90
21019;DHT22;10667;51.056;3.732;2023-05-10T10:06:43;17.80;99.90
21019;DHT22;10667;51.056;3.732;2023-05-10T10:09:09;18.10;99.90
21019;DHT22;10667;51.056;3.732;2023-05-10T10:11:36;18.10;99.90
21019;DHT22;10667;51.056;3.732;2023-05-10T10:14:02;18.20;99.90
21019;DHT22;10667;51.056;3.732;2023-05-10T10:16:32;18.20;99.90
21019;DHT22;10667;51.056;3.732;2023-05-10T10:18:58;18.60;99.90
21019;DHT22;10667;51.056;3.732;2023-05-10T10:21:24;18.80;99.90
21019;DHT22;10667;51.056;3.732;2023-05-10T10:23:49;18.90;99.90
21019;DHT22;10667;51.056;3.732;2023-05-10T10:26:17;19.30;99.90
21019;DHT22;10667;51.056;3.732;2023-05-10T10:32:11;19.30;99.90
21019;DHT22;10667;51.056;3.732;2023-05-10T10:34:42;19.80;99.90
21019;DHT22;10667;51.056;3.732;2023-05-10T10:37:07;20.10;99.90
21019;DHT22;10667;51.056;3.732;2023-05-10T10:39:33;19.90;99.90
21019;DHT22;10667;51.056;3.732;2023-05-10T10:42:02;20.00;99.90
21019;DHT22;10667;51.056;3.732;2023-05-10T10:52:31;19.40;99.90
21019;DHT22;10667;51.056;3.732;2023-05-10T11:00:25;18.60;99.90
21019;DHT22;10667;51.056;3.732;2023-05-10T11:05:40;18.10;99.90
21019;DHT22;10667;51.056;3.732;2023-05-10T11:08:11;18.50;99.90
21019;DHT22;10667;51.056;3.732;2023-05-10T11:10:38;18.60;99.90
21019;DHT22;10667;51.056;3.732;2023-05-10T11:13:04;18.40;99.90
21019;DHT22;10667;51.056;3.732;2023-05-10T11:15:34;18.20;99.90
21019;DHT22;10667;51.056;3.732;2023-05-10T11:18:26;18.10;99.90
21019;DHT22;10667;51.056;3.732;2023-05-10T11:20:59;18.00;99.90
21019;DHT22;10667;51.056;3.732;2023-05-10T11:23:47;17.70;99.90
21019;DHT22;10667;51.056;3.732;2023-05-10T11:26:13;17.30;99.90
21019;DHT22;10667;51.056;3.732;2023-05-10T11:28:46;17.00;99.90
21019;DHT22;10667;51.056;3.732;2023-05-10T11:31:17;16.70;99.90
21019;DHT22;10667;51.056;3.732;2023-05-10T11:33:48;16.50;99.90
21019;DHT22;10667;51.056;3.732;2023-05-10T11:36:18;16.40;99.90
21019;DHT22;10667;51.056;3.732;2023-05-10T11:38:46;16.40;99.90
21019;DHT22;10667;51.056;3.732;2023-05-10T11:41:13;16.40;99.90
21019;DHT22;10667;51.056;3.732;2023-05-10T11:43:40;16.50;99.90
21019;DHT22;10667;51.056;3.732;2023-05-10T11:46:11;16.50;99.90
21019;DHT22;10667;51.056;3.732;2023-05-10T11:48:39;16.50;99.90
21019;DHT22;10667;51.056;3.732;2023-05-10T11:51:06;16.70;99.90
21019;DHT22;10667;51.056;3.732;2023-05-10T11:53:32;16.90;99.90
21019;DHT22;10667;51.056;3.732;2023-05-10T11:56:09;17.40;99.90
21019;DHT22;10667;51.056;3.732;2023-05-10T11:58:36;17.90;99.90
21019;DHT22;10667;51.056;3.732;2023-05-10T12:01:06;18.30;99.90
21019;DHT22;10667;51.056;3.732;2023-05-10T12:03:32;18.60;99.90
21019;DHT22;10667;51.056;3.732;2023-05-10T12:06:00;18.50;99.90
21019;DHT22;10667;51.056;3.732;2023-05-10T12:08:28;18.40;99.90
21019;DHT22;10667;51.056;3.732;2023-05-10T12:11:07;18.10;99.90
21019;DHT22;10667;51.056;3.732;2023-05-10T12:13:38;18.20;99.90
21019;DHT22;10667;51.056;3.732;2023-05-10T12:16:25;17.90;99.90
21019;DHT22;10667;51.056;3.732;2023-05-10T12:18:55;17.80;99.90
21019;DHT22;10667;51.056;3.732;2023-05-10T12:21:21;17.80;99.90
21019;DHT22;10667;51.056;3.732;2023-05-10T12:24:09;17.90;99.90
21019;DHT22;10667;51.056;3.732;2023-05-10T12:26:35;18.00;99.90
21019;DHT22;10667;51.056;3.732;2023-05-10T12:29:13;18.10;99.90
21019;DHT22;10667;51.056;3.732;2023-05-10T12:31:57;18.00;99.90
21019;DHT22;10667;51.056;3.732;2023-05-10T12:34:24;17.70;99.90
21019;DHT22;10667;51.056;3.732;2023-05-10T12:36:52;17.70;99.90
21019;DHT22;10667;51.056;3.732;2023-05-10T12:39:18;17.60;99.90
21019;DHT22;10667;51.056;3.732;2023-05-10T12:41:43;17.40;99.90
21019;DHT22;10667;51.056;3.732;2023-05-10T12:44:09;17.20;99.90
21019;DHT22;10667;51.056;3.732;2023-05-10T12:46:35;17.00;99.90
21019;DHT22;10667;51.056;3.732;2023-05-10T12:49:00;16.80;99.90
21019;DHT22;10667;51.056;3.732;2023-05-10T12:51:26;16.60;99.90
21019;DHT22;10667;51.056;3.732;2023-05-10T12:53:51;16.60;99.90
21019;DHT22;10667;51.056;3.732;2023-05-10T12:56:17;16.40;99.90
21019;DHT22;10667;51.056;3.732;2023-05-10T12:58:42;16.40;99.90
21019;DHT22;10667;51.056;3.732;2023-05-10T13:01:13;16.20;99.90
21019;DHT22;10667;51.056;3.732;2023-05-10T13:03:39;16.10;99.90
21019;DHT22;10667;51.056;3.732;2023-05-10T13:06:05;15.90;99.90
21019;DHT22;10667;51.056;3.732;2023-05-10T13:08:32;15.90;99.90
21019;DHT22;10667;51.056;3.732;2023-05-10T13:10:59;15.80;99.90
21019;DHT22;10667;51.056;3.732;2023-05-10T13:13:24;15.70;99.90
21019;DHT22;10667;51.056;3.732;2023-05-10T13:15:50;15.70;99.90
21019;DHT22;10667;51.056;3.732;2023-05-10T13:18:16;15.70;99.90
21019;DHT22;10667;51.056;3.732;2023-05-10T13:20:41;15.50;99.90
21019;DHT22;10667;51.056;3.732;2023-05-10T13:23:09;15.40;99.90
21019;DHT22;10667;51.056;3.732;2023-05-10T13:25:35;15.30;99.90
21019;DHT22;10667;51.056;3.732;2023-05-10T13:28:02;15.30;99.90
21019;DHT22;10667;51.056;3.732;2023-05-10T13:30:27;15.10;99.90
21019;DHT22;10667;51.056;3.732;2023-05-10T13:32:54;15.20;99.90
21019;DHT22;10667;51.056;3.732;2023-05-10T13:35:20;15.20;99.90
21019;DHT22;10667;51.056;3.732;2023-05-10T13:37:46;15.10;99.90
21019;DHT22;10667;51.056;3.732;2023-05-10T13:40:11;15.00;99.90
21019;DHT22;10667;51.056;3.732;2023-05-10T13:42:38;14.90;99.90
21019;DHT22;10667;51.056;3.732;2023-05-10T13:45:04;15.00;99.90
21019;DHT22;10667;51.056;3.732;2023-05-10T13:47:29;15.00;99.90
21019;DHT22;10667;51.056;3.732;2023-05-10T13:49:55;15.10;99.90
21019;DHT22;10667;51.056;3.732;2023-05-10T13:52:21;15.10;99.90
21019;DHT22;10667;51.056;3.732;2023-05-10T13:54:47;15.20;99.90
21019;DHT22;10667;51.056;3.732;2023-05-10T13:57:12;15.30;99.90
21019;DHT22;10667;51.056;3.732;2023-05-10T13:59:39;15.30;99.90
21019;DHT22;10667;51.056;3.732;2023-05-10T14:02:05;15.20;99.90
21019;DHT22;10667;51.056;3.732;2023-05-10T14:04:31;15.20;99.90
21019;DHT22;10667;51.056;3.732;2023-05-10T14:06:57;15.30;99.90
21019;DHT22;10667;51.056;3.732;2023-05-10T14:09:23;15.20;99.90
21019;DHT22;10667;51.056;3.732;2023-05-10T14:11:48;15.20;99.90
21019;DHT22;10667;51.056;3.732;2023-05-10T14:14:14;15.30;99.90
21019;DHT22;10667;51.056;3.732;2023-05-10T14:16:44;15.30;99.90
21019;DHT22;10667;51.056;3.732;2023-05-10T14:19:10;15.40;99.90
21019;DHT22;10667;51.056;3.732;2023-05-10T14:21:36;15.30;99.90
21019;DHT22;10667;51.056;3.732;2023-05-10T14:24:01;15.30;99.90
21019;DHT22;10667;51.056;3.732;2023-05-10T14:26:27;15.40;99.90
21019;DHT22;10667;51.056;3.732;2023-05-10T14:28:53;15.40;99.90
21019;DHT22;10667;51.056;3.732;2023-05-10T14:31:19;15.50;99.90
21019;DHT22;10667;51.056;3.732;2023-05-10T14:33:49;15.60;99.90
21019;DHT22;10667;51.056;3.732;2023-05-10T14:36:15;15.70;99.90
21019;DHT22;10667;51.056;3.732;2023-05-10T14:38:41;15.70;99.90
21019;DHT22;10667;51.056;3.732;2023-05-10T14:41:06;15.80;99.90
21019;DHT22;10667;51.056;3.732;2023-05-10T14:43:32;15.90;99.90
21019;DHT22;10667;51.056;3.732;2023-05-10T14:45:58;16.00;99.90
21019;DHT22;10667;51.056;3.732;2023-05-10T14:48:24;16.20;99.90
21019;DHT22;10667;51.056;3.732;2023-05-10T14:50:49;16.30;99.90
21019;DHT22;10667;51.056;3.732;2023-05-10T14:53:16;16.30;99.90
21019;DHT22;10667;51.056;3.732;2023-05-10T14:55:41;16.40;99.90
21019;DHT22;10667;51.056;3.732;2023-05-10T14:58:07;16.40;99.90
21019;DHT22;10667;51.056;3.732;2023-05-10T15:00:33;16.40;99.90
21019;DHT22;10667;51.056;3.732;2023-05-10T15:02:59;16.50;99.90
21019;DHT22;10667;51.056;3.732;2023-05-10T15:05:24;16.50;99.90
21019;DHT22;10667;51.056;3.732;2023-05-10T15:07:50;16.50;99.90
21019;DHT22;10667;51.056;3.732;2023-05-10T15:10:16;16.50;99.90
21019;DHT22;10667;51.056;3.732;2023-05-10T15:12:41;16.60;99.90
21019;DHT22;10667;51.056;3.732;2023-05-10T15:15:07;16.60;99.90
21019;DHT22;10667;51.056;3.732;2023-05-10T15:17:33;16.50;99.90
21019;DHT22;10667;51.056;3.732;2023-05-10T15:19:59;16.60;99.90
21019;DHT22;10667;51.056;3.732;2023-05-10T15:22:25;16.70;99.90
21019;DHT22;10667;51.056;3.732;2023-05-10T15:24:53;16.60;99.90
21019;DHT22;10667;51.056;3.732;2023-05-10T15:27:19;16.60;99.90
21019;DHT22;10667;51.056;3.732;2023-05-10T15:29:44;16.60;99.90
21019;DHT22;10667;51.056;3.732;2023-05-10T15:32:10;16.60;99.90
21019;DHT22;10667;51.056;3.732;2023-05-10T15:34:36;16.60;99.90
21019;DHT22;10667;51.056;3.732;2023-05-10T15:37:02;16.50;99.90
21019;DHT22;10667;51.056;3.732;2023-05-10T15:39:28;16.60;99.90
21019;DHT22;10667;51.056;3.732;2023-05-10T15:41:53;16.70;99.90
21019;DHT22;10667;51.056;3.732;2023-05-10T15:44:19;16.80;99.90
21019;DHT22;10667;51.056;3.732;2023-05-10T15:46:44;16.80;99.90
21019;DHT22;10667;51.056;3.732;2023-05-10T15:49:10;16.90;99.90
21019;DHT22;10667;51.056;3.732;2023-05-10T15:51:36;16.90;99.90
21019;DHT22;10667;51.056;3.732;2023-05-10T15:54:02;16.90;99.90
21019;DHT22;10667;51.056;3.732;2023-05-10T15:56:28;16.90;99.90
21019;DHT22;10667;51.056;3.732;2023-05-10T15:58:54;16.90;99.90
21019;DHT22;10667;51.056;3.732;2023-05-10T16:01:19;17.00;99.90
21019;DHT22;10667;51.056;3.732;2023-05-10T16:03:45;17.20;99.90
21019;DHT22;10667;51.056;3.732;2023-05-10T16:06:11;17.30;99.90
21019;DHT22;10667;51.056;3.732;2023-05-10T16:08:37;17.60;99.90
21019;DHT22;10667;51.056;3.732;2023-05-10T16:11:02;18.00;99.90